createdAt,value
2022-08-19T00:00:00.280Z,20.20
2022-08-19T00:03:01.941Z,20.20
2022-08-19T00:06:04.309Z,20.20
2022-08-19T00:09:09.266Z,20.10
2022-08-19T00:12:11.378Z,20.10
2022-08-19T00:15:16.011Z,20.10
2022-08-19T00:18:17.703Z,20.00
2022-08-19T00:21:19.432Z,20.00
2022-08-19T00:24:21.131Z,20.00
2022-08-19T00:27:26.281Z,20.00
2022-08-19T00:30:28.731Z,19.90
2022-08-19T00:33:34.794Z,19.90
2022-08-19T00:36:37.867Z,19.90
2022-08-19T00:39:39.639Z,19.90
2022-08-19T00:42:42.437Z,19.90
2022-08-19T00:45:44.557Z,19.90
2022-08-19T00:48:46.209Z,19.90
2022-08-19T00:51:51.515Z,19.90
2022-08-19T00:54:54.279Z,20.00
2022-08-19T00:58:01.816Z,20.00
2022-08-19T01:01:05.125Z,20.00
2022-08-19T01:04:07.746Z,20.00
2022-08-19T01:07:09.474Z,20.00
2022-08-19T01:10:20.128Z,20.00
2022-08-19T01:13:26.910Z,20.00
2022-08-19T01:16:30.920Z,19.90
2022-08-19T01:19:43.681Z,19.90
2022-08-19T01:22:49.730Z,19.90
2022-08-19T01:25:55.323Z,19.90
2022-08-19T01:28:59.485Z,19.90
2022-08-19T01:32:08.705Z,19.90
2022-08-19T01:35:33.149Z,19.90
2022-08-19T01:38:38.088Z,19.90
2022-08-19T01:41:46.733Z,19.80
2022-08-19T01:44:48.682Z,19.80
2022-08-19T01:47:51.641Z,19.70
2022-08-19T01:51:03.534Z,19.70
2022-08-19T01:54:05.433Z,19.70
2022-08-19T01:57:11.332Z,19.70
2022-08-19T02:00:16.798Z,19.70
2022-08-19T02:03:18.603Z,19.70
2022-08-19T02:06:20.716Z,19.70
2022-08-19T02:09:28.890Z,19.60
2022-08-19T02:12:30.751Z,19.70
2022-08-19T02:15:33.001Z,19.60
2022-08-19T02:18:34.721Z,19.60
2022-08-19T02:21:36.433Z,19.60
2022-08-19T02:24:39.053Z,19.50
2022-08-19T02:27:42.018Z,19.50
2022-08-19T02:30:43.952Z,19.50
2022-08-19T02:33:46.411Z,19.50
2022-08-19T02:36:52.009Z,19.50
2022-08-19T02:39:57.379Z,19.50
2022-08-19T02:42:59.085Z,19.50
2022-08-19T02:46:01.237Z,19.60
2022-08-19T02:49:06.171Z,19.40
2022-08-19T02:52:08.065Z,19.40
2022-08-19T02:55:09.992Z,19.40
2022-08-19T02:58:12.220Z,19.40
2022-08-19T03:01:33.209Z,19.40
2022-08-19T03:04:34.905Z,19.30
2022-08-19T03:07:37.993Z,19.30
2022-08-19T03:10:45.157Z,19.20
2022-08-19T03:13:47.442Z,19.30
2022-08-19T03:16:51.408Z,19.30
2022-08-19T03:19:53.158Z,19.30
2022-08-19T03:22:54.813Z,19.30
2022-08-19T03:25:58.142Z,19.50
2022-08-19T03:29:06.370Z,19.40
2022-08-19T03:32:32.162Z,19.30
2022-08-19T03:35:33.223Z,19.30
2022-08-19T03:38:39.336Z,19.30
2022-08-19T03:41:45.776Z,19.30
2022-08-19T03:44:48.273Z,19.30
2022-08-19T03:47:49.992Z,19.30
2022-08-19T03:50:51.666Z,19.30
2022-08-19T03:53:54.975Z,19.30
2022-08-19T03:56:58.442Z,19.40
2022-08-19T04:00:12.647Z,19.30
2022-08-19T04:03:16.221Z,19.30
2022-08-19T04:06:26.632Z,19.30
2022-08-19T04:09:28.374Z,19.20
2022-08-19T04:12:30.050Z,19.20
2022-08-19T04:15:36.679Z,19.20
2022-08-19T04:18:39.791Z,19.20
2022-08-19T04:21:43.929Z,19.20
2022-08-19T04:24:45.637Z,19.20
2022-08-19T04:27:47.813Z,19.20
2022-08-19T04:30:55.245Z,19.20
2022-08-19T04:33:58.511Z,19.10
2022-08-19T04:37:00.521Z,19.20
2022-08-19T04:40:20.626Z,19.20
2022-08-19T04:43:22.303Z,19.20
2022-08-19T04:46:39.617Z,19.10
2022-08-19T04:49:45.717Z,19.10
2022-08-19T04:52:47.430Z,19.10
2022-08-19T04:55:49.100Z,19.10
2022-08-19T04:58:53.812Z,19.10
2022-08-19T05:01:55.524Z,19.10
2022-08-19T05:05:01.415Z,19.20
2022-08-19T05:08:03.254Z,19.10
2022-08-19T05:11:15.292Z,19.10
2022-08-19T05:14:17.204Z,19.20
2022-08-19T05:17:28.174Z,19.10
2022-08-19T05:20:49.774Z,19.10
2022-08-19T05:23:51.446Z,19.10
2022-08-19T05:26:59.612Z,19.10
2022-08-19T05:30:02.475Z,19.10
2022-08-19T05:33:04.464Z,19.10
2022-08-19T05:36:10.714Z,19.10
2022-08-19T05:39:16.791Z,19.10
2022-08-19T05:42:20.673Z,19.10
2022-08-19T05:45:27.441Z,19.20
2022-08-19T05:48:29.290Z,19.20
2022-08-19T05:51:31.000Z,19.30
2022-08-19T05:54:33.646Z,19.30
2022-08-19T05:57:35.374Z,19.40
2022-08-19T06:00:38.431Z,19.50
2022-08-19T06:03:40.653Z,19.60
2022-08-19T06:06:42.327Z,19.60
2022-08-19T06:09:59.015Z,19.70
2022-08-19T06:13:06.652Z,19.70
2022-08-19T06:16:08.347Z,19.80
2022-08-19T06:19:16.873Z,19.90
2022-08-19T06:22:18.662Z,20.00
2022-08-19T06:25:20.637Z,20.10
2022-08-19T06:28:23.946Z,20.10
2022-08-19T06:31:29.601Z,20.10
2022-08-19T06:34:33.801Z,20.10
2022-08-19T06:37:35.533Z,20.10
2022-08-19T06:40:39.170Z,20.10
2022-08-19T06:43:43.473Z,20.10
2022-08-19T06:46:45.537Z,20.10
2022-08-19T06:50:03.862Z,20.10
2022-08-19T06:53:09.407Z,20.20
2022-08-19T06:56:11.408Z,20.30
2022-08-19T06:59:19.455Z,20.40
2022-08-19T07:02:21.609Z,20.60
2022-08-19T07:05:23.787Z,20.80
2022-08-19T07:08:29.255Z,20.90
2022-08-19T07:11:31.825Z,21.10
2022-08-19T07:14:38.449Z,21.10
2022-08-19T07:17:40.262Z,21.10
2022-08-19T07:20:44.015Z,21.10
2022-08-19T07:23:46.276Z,21.00
2022-08-19T07:26:51.747Z,20.90
2022-08-19T07:29:57.370Z,20.90
2022-08-19T07:32:59.415Z,20.80
2022-08-19T07:36:08.850Z,20.80
2022-08-19T07:39:24.512Z,20.70
2022-08-19T07:42:26.485Z,20.70
2022-08-19T07:45:29.334Z,20.60
2022-08-19T07:48:31.501Z,20.60
2022-08-19T07:51:37.252Z,20.50
2022-08-19T07:54:41.510Z,20.50
2022-08-19T08:00:51.280Z,20.60
2022-08-19T08:04:13.417Z,20.60
2022-08-19T08:07:33.992Z,20.60
2022-08-19T08:10:36.598Z,20.60
2022-08-19T08:13:39.095Z,20.60
2022-08-19T08:16:46.795Z,20.60
2022-08-19T08:19:51.469Z,20.60
2022-08-19T08:23:12.232Z,20.60
2022-08-19T08:26:16.007Z,20.70
2022-08-19T08:29:18.074Z,20.70
2022-08-19T08:32:19.830Z,20.80
2022-08-19T08:35:24.436Z,20.80
2022-08-19T08:38:26.179Z,20.80
2022-08-19T08:41:44.829Z,20.70
2022-08-19T08:45:04.070Z,20.80
2022-08-19T08:48:24.161Z,20.80
2022-08-19T08:51:35.384Z,20.90
2022-08-19T08:54:49.100Z,20.90
2022-08-19T08:58:04.694Z,21.00
2022-08-19T09:01:06.439Z,21.00
2022-08-19T09:04:08.595Z,21.20
2022-08-19T09:07:47.398Z,21.30
2022-08-19T09:10:55.586Z,21.40
2022-08-19T09:14:47.317Z,21.50
2022-08-19T09:17:42.405Z,21.50
2022-08-19T09:20:44.325Z,21.50
2022-08-19T09:23:46.136Z,21.50
2022-08-19T09:26:53.055Z,21.60
2022-08-19T09:29:56.107Z,21.70
2022-08-19T09:32:57.818Z,21.80
2022-08-19T09:36:08.549Z,22.00
2022-08-19T09:39:16.114Z,22.20
2022-08-19T09:42:30.297Z,22.30
2022-08-19T09:45:33.320Z,22.30
2022-08-19T09:48:35.094Z,22.40
2022-08-19T09:51:36.859Z,22.40
2022-08-19T09:54:39.867Z,22.50
2022-08-19T09:57:45.980Z,22.60
2022-08-19T10:00:51.521Z,22.60
2022-08-19T10:03:56.632Z,22.70
2022-08-19T10:06:58.417Z,22.70
2022-08-19T10:10:02.023Z,22.90
2022-08-19T10:13:04.057Z,23.10
2022-08-19T10:16:10.204Z,23.30
2022-08-19T10:19:12.202Z,23.50
2022-08-19T10:22:14.749Z,23.60
2022-08-19T10:25:17.493Z,23.80
2022-08-19T10:28:19.688Z,23.90
2022-08-19T10:31:58.805Z,24.00
2022-08-19T10:34:48.448Z,24.00
2022-08-19T10:37:57.647Z,24.00
2022-08-19T10:41:15.989Z,24.00
2022-08-19T10:44:19.028Z,24.10
2022-08-19T10:47:25.663Z,24.20
2022-08-19T10:50:46.323Z,24.30
2022-08-19T10:53:59.544Z,24.30
2022-08-19T10:57:01.292Z,24.30
2022-08-19T11:00:05.129Z,24.40
2022-08-19T11:03:06.959Z,24.40
2022-08-19T11:06:11.170Z,24.40
2022-08-19T11:09:13.846Z,24.30
2022-08-19T11:12:16.256Z,24.30
2022-08-19T11:15:18.087Z,24.20
2022-08-19T11:18:19.837Z,24.20
2022-08-19T11:21:26.220Z,24.20
2022-08-19T11:24:28.880Z,24.30
2022-08-19T11:27:30.911Z,24.30
2022-08-19T11:30:44.793Z,24.30
2022-08-19T11:33:47.986Z,24.30
2022-08-19T11:36:51.873Z,24.30
2022-08-19T11:39:54.408Z,24.30
2022-08-19T11:42:56.445Z,24.30
2022-08-19T11:45:58.872Z,24.40
2022-08-19T11:49:01.578Z,24.50
2022-08-19T11:52:03.673Z,24.60
2022-08-19T11:55:06.250Z,24.60
2022-08-19T11:58:35.186Z,24.60
2022-08-19T12:01:37.294Z,24.60
2022-08-19T12:04:38.980Z,24.70
2022-08-19T12:07:42.334Z,24.60
2022-08-19T12:10:45.226Z,24.60
2022-08-19T12:13:47.165Z,24.50
2022-08-19T12:16:50.459Z,24.60
2022-08-19T12:19:54.785Z,24.70
2022-08-19T12:22:56.436Z,24.80
2022-08-19T12:25:58.444Z,24.80
2022-08-19T12:29:00.596Z,24.90
2022-08-19T12:32:04.000Z,24.90
2022-08-19T12:35:07.996Z,24.90
2022-08-19T12:38:10.031Z,24.90
2022-08-19T12:41:14.252Z,24.90
2022-08-19T12:44:16.157Z,24.80
2022-08-19T12:47:19.948Z,25.00
2022-08-19T12:50:22.410Z,25.00
2022-08-19T12:53:24.505Z,25.00
2022-08-19T12:56:26.208Z,25.10
2022-08-19T12:59:28.384Z,25.10
2022-08-19T13:02:30.111Z,25.10
2022-08-19T13:05:34.401Z,25.10
2022-08-19T13:08:37.077Z,25.20
2022-08-19T13:11:39.043Z,25.30
2022-08-19T13:14:41.569Z,25.30
2022-08-19T13:17:43.560Z,25.40
2022-08-19T13:20:52.540Z,25.40
2022-08-19T13:23:55.183Z,25.40
2022-08-19T13:26:56.876Z,25.40
2022-08-19T13:30:18.492Z,25.30
2022-08-19T13:33:20.592Z,25.40
2022-08-19T13:36:22.260Z,25.40
2022-08-19T13:39:24.818Z,25.30
2022-08-19T13:42:26.709Z,25.30
2022-08-19T13:45:30.665Z,25.30
2022-08-19T13:48:32.562Z,25.30
2022-08-19T13:51:34.272Z,25.40
2022-08-19T13:54:36.043Z,25.40
2022-08-19T13:57:42.892Z,25.50
2022-08-19T14:00:46.743Z,25.50
2022-08-19T14:03:48.773Z,25.50
2022-08-19T14:06:50.501Z,25.50
2022-08-19T14:09:52.229Z,25.50
2022-08-19T14:12:56.398Z,25.60
2022-08-19T14:15:59.008Z,25.50
2022-08-19T14:19:01.420Z,25.50
2022-08-19T14:22:03.272Z,25.50
2022-08-19T14:25:07.571Z,25.60
2022-08-19T14:28:09.426Z,25.60
2022-08-19T14:31:13.833Z,25.60
2022-08-19T14:34:15.572Z,25.70
2022-08-19T14:37:17.285Z,25.70
2022-08-19T14:40:29.601Z,25.70
2022-08-19T14:43:31.256Z,25.70
2022-08-19T14:46:33.145Z,25.60
2022-08-19T14:49:35.936Z,25.70
2022-08-19T14:52:45.473Z,25.70
2022-08-19T14:55:47.791Z,25.70
2022-08-19T14:58:52.483Z,25.70
2022-08-19T15:01:54.491Z,25.70
2022-08-19T15:04:58.481Z,25.70
2022-08-19T15:08:04.916Z,25.70
2022-08-19T15:11:16.806Z,25.70
2022-08-19T15:14:18.565Z,25.70
2022-08-19T15:17:20.341Z,25.80
2022-08-19T15:20:31.921Z,25.80
2022-08-19T15:23:34.798Z,25.80
2022-08-19T15:26:36.779Z,25.80
2022-08-19T15:29:38.486Z,25.80
2022-08-19T15:32:40.418Z,25.80
2022-08-19T15:35:45.167Z,25.80
2022-08-19T15:38:46.840Z,25.70
2022-08-19T15:41:50.083Z,25.70
2022-08-19T15:44:52.111Z,25.70
2022-08-19T15:47:55.717Z,25.70
2022-08-19T15:50:57.471Z,25.60
2022-08-19T15:54:00.444Z,25.60
2022-08-19T15:57:20.973Z,25.50
2022-08-19T16:00:41.243Z,25.50
2022-08-19T16:04:01.723Z,25.50
2022-08-19T16:07:04.009Z,25.50
2022-08-19T16:10:26.397Z,25.40
2022-08-19T16:13:28.722Z,25.40
2022-08-19T16:16:33.878Z,25.30
2022-08-19T16:19:35.855Z,25.30
2022-08-19T16:22:39.888Z,25.30
2022-08-19T16:25:41.673Z,25.20
2022-08-19T16:28:44.196Z,25.10
2022-08-19T16:31:46.795Z,25.10
2022-08-19T16:34:48.599Z,25.10
2022-08-19T16:37:50.338Z,25.10
2022-08-19T16:40:54.205Z,25.00
2022-08-19T16:43:55.955Z,25.00
2022-08-19T16:46:59.799Z,25.00
2022-08-19T16:50:01.846Z,24.90
2022-08-19T16:53:03.656Z,24.90
2022-08-19T16:56:05.688Z,24.90
2022-08-19T16:59:07.450Z,24.80
2022-08-19T17:02:09.151Z,24.80
2022-08-19T17:05:12.087Z,24.80
2022-08-19T17:08:18.477Z,24.80
2022-08-19T17:11:22.011Z,24.80
2022-08-19T17:14:23.705Z,24.70
2022-08-19T17:17:28.887Z,24.70
2022-08-19T17:20:31.668Z,24.60
2022-08-19T17:23:43.208Z,24.60
2022-08-19T17:26:45.705Z,24.60
2022-08-19T17:29:47.450Z,24.60
2022-08-19T17:32:49.327Z,24.50
2022-08-19T17:35:50.990Z,24.50
2022-08-19T17:38:55.185Z,24.40
2022-08-19T17:41:57.433Z,24.40
2022-08-19T17:45:05.502Z,24.30
2022-08-19T17:48:08.408Z,24.30
2022-08-19T17:51:35.632Z,24.30
2022-08-19T17:54:38.751Z,24.30
2022-08-19T17:57:43.686Z,24.20
2022-08-19T18:00:53.843Z,24.20
2022-08-19T18:03:56.095Z,24.10
2022-08-19T18:06:57.846Z,24.10
2022-08-19T18:10:01.833Z,24.00
2022-08-19T18:13:16.996Z,24.00
2022-08-19T18:16:22.174Z,24.00
2022-08-19T18:19:41.429Z,24.00
2022-08-19T18:22:48.887Z,23.90
2022-08-19T18:25:50.781Z,23.80
2022-08-19T18:28:52.649Z,23.80
2022-08-19T18:31:56.418Z,23.70
2022-08-19T18:35:01.184Z,23.70
2022-08-19T18:38:38.458Z,23.70
2022-08-19T18:41:59.796Z,23.60
2022-08-19T18:45:20.219Z,23.60
2022-08-19T18:48:41.011Z,23.50
2022-08-19T18:51:43.044Z,23.40
2022-08-19T18:54:47.356Z,23.40
2022-08-19T18:57:52.089Z,23.30
2022-08-19T19:00:56.719Z,23.30
2022-08-19T19:04:02.100Z,23.20
2022-08-19T19:07:08.989Z,23.20
2022-08-19T19:10:12.192Z,23.10
2022-08-19T19:13:16.323Z,23.10
2022-08-19T19:16:22.422Z,23.00
2022-08-19T19:19:26.473Z,23.00
2022-08-19T19:22:28.129Z,23.00
2022-08-19T19:25:49.879Z,23.00
2022-08-19T19:28:51.618Z,22.90
2022-08-19T19:31:55.979Z,22.90
2022-08-19T19:34:58.046Z,22.90
2022-08-19T19:37:59.862Z,22.80
2022-08-19T19:41:01.744Z,22.80
2022-08-19T19:44:31.017Z,22.80
2022-08-19T19:47:28.433Z,22.80
2022-08-19T19:50:31.108Z,22.80
2022-08-19T19:53:33.778Z,22.70
2022-08-19T19:56:35.648Z,22.70
2022-08-19T19:59:37.474Z,22.70
2022-08-19T20:02:50.496Z,22.60
2022-08-19T20:05:52.669Z,22.60
2022-08-19T20:09:10.354Z,22.60
2022-08-19T20:12:12.106Z,22.50
2022-08-19T20:15:14.803Z,22.50
2022-08-19T20:18:16.558Z,22.50
2022-08-19T20:21:18.376Z,22.40
2022-08-19T20:24:24.885Z,22.50
2022-08-19T20:27:26.580Z,22.40
2022-08-19T20:30:33.169Z,22.30
2022-08-19T20:33:34.965Z,22.20
2022-08-19T20:36:36.974Z,22.10
2022-08-19T20:39:38.728Z,22.10
2022-08-19T20:42:42.101Z,22.10
2022-08-19T20:45:46.947Z,22.00
2022-08-19T20:48:48.976Z,22.00
2022-08-19T20:51:51.052Z,22.00
2022-08-19T20:54:52.745Z,22.00
2022-08-19T20:57:55.048Z,22.00
2022-08-19T21:00:59.588Z,21.90
2022-08-19T21:04:01.325Z,21.90
2022-08-19T21:07:03.585Z,21.90
2022-08-19T21:10:06.715Z,21.80
2022-08-19T21:13:08.395Z,21.80
2022-08-19T21:16:10.148Z,21.80
2022-08-19T21:19:12.155Z,21.80
2022-08-19T21:22:13.841Z,21.80
2022-08-19T21:25:26.210Z,21.70
2022-08-19T21:28:29.994Z,21.70
2022-08-19T21:31:38.109Z,21.70
2022-08-19T21:34:46.265Z,21.70
2022-08-19T21:37:48.189Z,21.70
2022-08-19T21:40:50.287Z,21.70
2022-08-19T21:43:55.053Z,21.70
2022-08-19T21:46:56.838Z,21.70
2022-08-19T21:49:58.581Z,21.60
2022-08-19T21:53:01.265Z,21.60
2022-08-19T21:56:04.228Z,21.70
2022-08-19T21:59:07.015Z,21.60
2022-08-19T22:02:19.598Z,21.60
2022-08-19T22:05:23.079Z,21.60
2022-08-19T22:08:37.262Z,21.50
2022-08-19T22:11:39.815Z,21.50
2022-08-19T22:14:41.510Z,21.50
2022-08-19T22:17:43.621Z,21.50
2022-08-19T22:20:45.824Z,21.50
2022-08-19T22:23:47.833Z,21.40
2022-08-19T22:26:49.664Z,21.30
2022-08-19T22:29:52.642Z,21.30
2022-08-19T22:33:01.101Z,21.20
2022-08-19T22:36:04.463Z,21.10
2022-08-19T22:39:06.126Z,21.00
2022-08-19T22:42:07.882Z,21.00
2022-08-19T22:45:12.728Z,21.00
2022-08-19T22:48:19.001Z,21.00
2022-08-19T22:51:39.148Z,20.90
2022-08-19T22:54:40.786Z,20.90
2022-08-19T22:57:43.522Z,20.80
2022-08-19T23:00:45.199Z,20.70
2022-08-19T23:03:47.096Z,20.70
2022-08-19T23:06:48.724Z,20.60
2022-08-19T23:09:50.381Z,20.50
2022-08-19T23:12:52.487Z,20.50
2022-08-19T23:15:55.867Z,20.40
2022-08-19T23:18:58.291Z,20.50
2022-08-19T23:22:00.096Z,20.50
2022-08-19T23:25:04.040Z,20.40
2022-08-19T23:28:25.254Z,20.30
2022-08-19T23:31:27.149Z,20.30
2022-08-19T23:34:28.797Z,20.30
2022-08-19T23:37:30.465Z,20.30
2022-08-19T23:40:32.284Z,20.20
2022-08-19T23:43:35.419Z,20.30
2022-08-19T23:46:42.200Z,20.20
2022-08-19T23:49:57.908Z,20.30
2022-08-19T23:53:04.232Z,20.30
2022-08-19T23:56:07.803Z,20.30
2022-08-19T23:59:09.452Z,20.30
